sensor_id;sensor_type;location;lat;lon;timestamp;temperature;humidity
15554;DHT22;7878;44.632;10.942;2022-11-20T00:01:09;12.10;99.90
15554;DHT22;7878;44.632;10.942;2022-11-20T00:03:35;12.10;99.90
15554;DHT22;7878;44.632;10.942;2022-11-20T00:06:02;12.10;99.90
15554;DHT22;7878;44.632;10.942;2022-11-20T00:08:28;12.10;99.90
15554;DHT22;7878;44.632;10.942;2022-11-20T00:10:53;12.20;99.90
15554;DHT22;7878;44.632;10.942;2022-11-20T00:13:19;12.10;99.90
15554;DHT22;7878;44.632;10.942;2022-11-20T00:15:45;12.10;99.90
15554;DHT22;7878;44.632;10.942;2022-11-20T00:18:10;12.10;99.90
15554;DHT22;7878;44.632;10.942;2022-11-20T00:20:36;12.10;99.90
15554;DHT22;7878;44.632;10.942;2022-11-20T00:23:01;12.10;99.90
15554;DHT22;7878;44.632;10.942;2022-11-20T00:25:27;12.00;99.90
15554;DHT22;7878;44.632;10.942;2022-11-20T00:27:53;12.00;99.90
15554;DHT22;7878;44.632;10.942;2022-11-20T00:30:18;12.00;99.90
15554;DHT22;7878;44.632;10.942;2022-11-20T00:32:44;12.10;99.90
15554;DHT22;7878;44.632;10.942;2022-11-20T00:35:10;12.00;99.90
15554;DHT22;7878;44.632;10.942;2022-11-20T00:37:35;12.00;99.90
15554;DHT22;7878;44.632;10.942;2022-11-20T00:40:01;12.10;99.90
15554;DHT22;7878;44.632;10.942;2022-11-20T00:42:26;12.10;99.90
15554;DHT22;7878;44.632;10.942;2022-11-20T00:44:52;12.10;99.90
15554;DHT22;7878;44.632;10.942;2022-11-20T00:47:18;12.10;99.90
15554;DHT22;7878;44.632;10.942;2022-11-20T00:49:43;12.10;99.90
15554;DHT22;7878;44.632;10.942;2022-11-20T00:52:09;12.10;99.90
15554;DHT22;7878;44.632;10.942;2022-11-20T00:54:35;12.10;99.90
15554;DHT22;7878;44.632;10.942;2022-11-20T00:57:00;12.10;99.90
15554;DHT22;7878;44.632;10.942;2022-11-20T00:59:26;12.10;99.90
15554;DHT22;7878;44.632;10.942;2022-11-20T01:01:51;12.10;99.90
15554;DHT22;7878;44.632;10.942;2022-11-20T01:04:17;12.00;99.90
15554;DHT22;7878;44.632;10.942;2022-11-20T01:06:42;12.00;99.90
15554;DHT22;7878;44.632;10.942;2022-11-20T01:09:12;12.00;99.90
15554;DHT22;7878;44.632;10.942;2022-11-20T01:11:43;12.00;99.90
15554;DHT22;7878;44.632;10.942;2022-11-20T01:14:27;12.00;99.90
15554;DHT22;7878;44.632;10.942;2022-11-20T01:16:52;12.00;99.90
15554;DHT22;7878;44.632;10.942;2022-11-20T01:19:21;12.00;99.90
15554;DHT22;7878;44.632;10.942;2022-11-20T01:21:50;12.00;99.90
15554;DHT22;7878;44.632;10.942;2022-11-20T01:24:17;12.00;99.90
15554;DHT22;7878;44.632;10.942;2022-11-20T01:26:44;12.00;99.90
15554;DHT22;7878;44.632;10.942;2022-11-20T01:29:16;12.00;99.90
15554;DHT22;7878;44.632;10.942;2022-11-20T01:31:43;12.00;99.90
15554;DHT22;7878;44.632;10.942;2022-11-20T01:34:14;12.00;99.90
15554;DHT22;7878;44.632;10.942;2022-11-20T01:36:41;12.00;99.90
15554;DHT22;7878;44.632;10.942;2022-11-20T01:39:15;12.00;99.90
15554;DHT22;7878;44.632;10.942;2022-11-20T01:41:43;12.10;99.90
15554;DHT22;7878;44.632;10.942;2022-11-20T01:47:12;12.10;99.90
15554;DHT22;7878;44.632;10.942;2022-11-20T01:49:53;12.00;99.90
15554;DHT22;7878;44.632;10.942;2022-11-20T01:53:00;12.00;99.90
15554;DHT22;7878;44.632;10.942;2022-11-20T01:55:30;12.00;99.90
15554;DHT22;7878;44.632;10.942;2022-11-20T01:57:56;11.90;99.90
15554;DHT22;7878;44.632;10.942;2022-11-20T02:00:22;11.90;99.90
15554;DHT22;7878;44.632;10.942;2022-11-20T02:02:52;11.90;99.90
15554;DHT22;7878;44.632;10.942;2022-11-20T02:05:31;11.90;99.90
15554;DHT22;7878;44.632;10.942;2022-11-20T02:07:59;11.90;99.90
15554;DHT22;7878;44.632;10.942;2022-11-20T02:10:26;11.90;99.90
15554;DHT22;7878;44.632;10.942;2022-11-20T02:12:52;11.90;99.90
15554;DHT22;7878;44.632;10.942;2022-11-20T02:15:36;11.80;99.90
15554;DHT22;7878;44.632;10.942;2022-11-20T02:18:02;11.80;99.90
15554;DHT22;7878;44.632;10.942;2022-11-20T02:20:28;11.80;99.90
15554;DHT22;7878;44.632;10.942;2022-11-20T02:22:58;11.70;99.90
15554;DHT22;7878;44.632;10.942;2022-11-20T02:25:26;11.70;99.90
15554;DHT22;7878;44.632;10.942;2022-11-20T02:27:52;11.70;99.90
15554;DHT22;7878;44.632;10.942;2022-11-20T02:30:18;11.70;99.90
15554;DHT22;7878;44.632;10.942;2022-11-20T02:32:44;11.70;99.90
15554;DHT22;7878;44.632;10.942;2022-11-20T02:37:45;11.70;99.90
15554;DHT22;7878;44.632;10.942;2022-11-20T02:40:12;11.70;99.90
15554;DHT22;7878;44.632;10.942;2022-11-20T02:42:38;11.70;99.90
15554;DHT22;7878;44.632;10.942;2022-11-20T02:45:05;11.70;99.90
15554;DHT22;7878;44.632;10.942;2022-11-20T02:47:31;11.60;99.90
15554;DHT22;7878;44.632;10.942;2022-11-20T02:49:57;11.70;99.90
15554;DHT22;7878;44.632;10.942;2022-11-20T02:52:24;11.70;99.90
15554;DHT22;7878;44.632;10.942;2022-11-20T02:54:50;11.70;99.90
15554;DHT22;7878;44.632;10.942;2022-11-20T02:57:15;11.60;99.90
15554;DHT22;7878;44.632;10.942;2022-11-20T02:59:41;11.70;99.90
15554;DHT22;7878;44.632;10.942;2022-11-20T03:02:07;11.60;99.90
15554;DHT22;7878;44.632;10.942;2022-11-20T03:04:32;11.70;99.90
15554;DHT22;7878;44.632;10.942;2022-11-20T03:06:58;11.70;99.90
15554;DHT22;7878;44.632;10.942;2022-11-20T03:09:23;11.70;99.90
15554;DHT22;7878;44.632;10.942;2022-11-20T03:11:49;11.70;99.90
15554;DHT22;7878;44.632;10.942;2022-11-20T03:14:15;11.70;99.90
15554;DHT22;7878;44.632;10.942;2022-11-20T03:16:40;11.60;99.90
15554;DHT22;7878;44.632;10.942;2022-11-20T03:19:06;11.60;99.90
15554;DHT22;7878;44.632;10.942;2022-11-20T03:21:35;11.60;99.90
15554;DHT22;7878;44.632;10.942;2022-11-20T03:24:00;11.50;99.90
15554;DHT22;7878;44.632;10.942;2022-11-20T03:26:27;11.50;99.90
15554;DHT22;7878;44.632;10.942;2022-11-20T03:28:58;11.50;99.90
15554;DHT22;7878;44.632;10.942;2022-11-20T03:31:27;11.50;99.90
15554;DHT22;7878;44.632;10.942;2022-11-20T03:33:53;11.50;99.90
15554;DHT22;7878;44.632;10.942;2022-11-20T03:36:20;11.50;99.90
15554;DHT22;7878;44.632;10.942;2022-11-20T03:38:46;11.40;99.90
15554;DHT22;7878;44.632;10.942;2022-11-20T03:41:23;11.40;99.90
15554;DHT22;7878;44.632;10.942;2022-11-20T03:43:56;11.40;99.90
15554;DHT22;7878;44.632;10.942;2022-11-20T03:46:22;11.40;99.90
15554;DHT22;7878;44.632;10.942;2022-11-20T03:48:48;11.40;99.90
15554;DHT22;7878;44.632;10.942;2022-11-20T03:51:22;11.40;99.90
15554;DHT22;7878;44.632;10.942;2022-11-20T03:53:50;11.40;99.90
15554;DHT22;7878;44.632;10.942;2022-11-20T03:56:18;11.40;99.90
15554;DHT22;7878;44.632;10.942;2022-11-20T03:58:44;11.30;99.90
15554;DHT22;7878;44.632;10.942;2022-11-20T04:01:12;11.30;99.90
15554;DHT22;7878;44.632;10.942;2022-11-20T04:03:39;11.40;99.90
15554;DHT22;7878;44.632;10.942;2022-11-20T04:06:07;11.30;99.90
15554;DHT22;7878;44.632;10.942;2022-11-20T04:08:33;11.30;99.90
15554;DHT22;7878;44.632;10.942;2022-11-20T04:11:29;11.30;99.90
15554;DHT22;7878;44.632;10.942;2022-11-20T04:13:57;11.30;99.90
15554;DHT22;7878;44.632;10.942;2022-11-20T04:16:24;11.20;99.90
15554;DHT22;7878;44.632;10.942;2022-11-20T04:18:54;11.20;99.90
15554;DHT22;7878;44.632;10.942;2022-11-20T04:21:20;11.20;99.90
15554;DHT22;7878;44.632;10.942;2022-11-20T04:23:46;11.20;99.90
15554;DHT22;7878;44.632;10.942;2022-11-20T04:26:12;11.10;99.90
15554;DHT22;7878;44.632;10.942;2022-11-20T04:28:38;11.10;99.90
15554;DHT22;7878;44.632;10.942;2022-11-20T04:31:10;11.10;99.90
15554;DHT22;7878;44.632;10.942;2022-11-20T04:33:36;11.10;99.90
15554;DHT22;7878;44.632;10.942;2022-11-20T04:36:09;11.10;99.90
15554;DHT22;7878;44.632;10.942;2022-11-20T04:38:35;11.00;99.90
15554;DHT22;7878;44.632;10.942;2022-11-20T04:41:04;11.00;99.90
15554;DHT22;7878;44.632;10.942;2022-11-20T04:43:30;11.00;99.90
15554;DHT22;7878;44.632;10.942;2022-11-20T04:45:57;11.00;99.90
15554;DHT22;7878;44.632;10.942;2022-11-20T04:48:24;10.90;99.90
15554;DHT22;7878;44.632;10.942;2022-11-20T04:50:51;11.00;99.90
15554;DHT22;7878;44.632;10.942;2022-11-20T04:53:16;11.00;99.90
15554;DHT22;7878;44.632;10.942;2022-11-20T04:55:42;11.00;99.90
15554;DHT22;7878;44.632;10.942;2022-11-20T04:58:08;10.90;99.90
15554;DHT22;7878;44.632;10.942;2022-11-20T05:00:33;10.90;99.90
15554;DHT22;7878;44.632;10.942;2022-11-20T05:02:59;10.80;99.90
15554;DHT22;7878;44.632;10.942;2022-11-20T05:05:25;10.80;99.90
15554;DHT22;7878;44.632;10.942;2022-11-20T05:07:50;10.80;99.90
15554;DHT22;7878;44.632;10.942;2022-11-20T05:10:16;10.80;99.90
15554;DHT22;7878;44.632;10.942;2022-11-20T05:12:42;10.80;99.90
15554;DHT22;7878;44.632;10.942;2022-11-20T05:15:08;10.80;99.90
15554;DHT22;7878;44.632;10.942;2022-11-20T05:17:34;10.70;99.90
15554;DHT22;7878;44.632;10.942;2022-11-20T05:19:59;10.70;99.90
15554;DHT22;7878;44.632;10.942;2022-11-20T05:22:25;10.70;99.90
15554;DHT22;7878;44.632;10.942;2022-11-20T05:24:51;10.70;99.90
15554;DHT22;7878;44.632;10.942;2022-11-20T05:27:16;10.70;99.90
15554;DHT22;7878;44.632;10.942;2022-11-20T05:29:42;10.70;99.90
15554;DHT22;7878;44.632;10.942;2022-11-20T05:32:08;10.80;99.90
15554;DHT22;7878;44.632;10.942;2022-11-20T05:34:35;10.80;99.90
15554;DHT22;7878;44.632;10.942;2022-11-20T05:37:01;10.70;99.90
15554;DHT22;7878;44.632;10.942;2022-11-20T05:39:27;10.60;99.90
15554;DHT22;7878;44.632;10.942;2022-11-20T05:41:53;10.60;99.90
15554;DHT22;7878;44.632;10.942;2022-11-20T05:44:39;10.60;99.90
15554;DHT22;7878;44.632;10.942;2022-11-20T05:47:04;10.70;99.90
15554;DHT22;7878;44.632;10.942;2022-11-20T05:49:30;10.70;99.90
15554;DHT22;7878;44.632;10.942;2022-11-20T05:51:56;10.70;99.90
15554;DHT22;7878;44.632;10.942;2022-11-20T05:54:21;10.70;99.90
15554;DHT22;7878;44.632;10.942;2022-11-20T05:56:47;10.70;99.90
15554;DHT22;7878;44.632;10.942;2022-11-20T05:59:13;10.60;99.90
15554;DHT22;7878;44.632;10.942;2022-11-20T06:01:38;10.60;99.90
15554;DHT22;7878;44.632;10.942;2022-11-20T06:04:04;10.50;99.90
15554;DHT22;7878;44.632;10.942;2022-11-20T06:06:30;10.60;99.90
15554;DHT22;7878;44.632;10.942;2022-11-20T06:08:55;10.50;99.90
15554;DHT22;7878;44.632;10.942;2022-11-20T06:11:21;10.50;99.90
15554;DHT22;7878;44.632;10.942;2022-11-20T06:13:47;10.50;99.90
15554;DHT22;7878;44.632;10.942;2022-11-20T06:16:15;10.50;99.90
15554;DHT22;7878;44.632;10.942;2022-11-20T06:18:41;10.50;99.90
15554;DHT22;7878;44.632;10.942;2022-11-20T06:21:13;10.50;99.90
15554;DHT22;7878;44.632;10.942;2022-11-20T06:23:40;10.50;99.90
15554;DHT22;7878;44.632;10.942;2022-11-20T06:26:09;10.50;99.90
15554;DHT22;7878;44.632;10.942;2022-11-20T06:28:35;10.50;99.90
15554;DHT22;7878;44.632;10.942;2022-11-20T06:31:01;10.50;99.90
15554;DHT22;7878;44.632;10.942;2022-11-20T06:33:27;10.50;99.90
15554;DHT22;7878;44.632;10.942;2022-11-20T06:35:56;10.40;99.90
15554;DHT22;7878;44.632;10.942;2022-11-20T06:38:21;10.40;99.90
15554;DHT22;7878;44.632;10.942;2022-11-20T06:40:47;10.40;99.90
15554;DHT22;7878;44.632;10.942;2022-11-20T06:43:13;10.50;99.90
15554;DHT22;7878;44.632;10.942;2022-11-20T06:45:38;10.40;99.90
15554;DHT22;7878;44.632;10.942;2022-11-20T06:48:04;10.40;99.90
15554;DHT22;7878;44.632;10.942;2022-11-20T06:50:30;10.40;99.90
15554;DHT22;7878;44.632;10.942;2022-11-20T06:52:55;10.40;99.90
15554;DHT22;7878;44.632;10.942;2022-11-20T06:55:21;10.50;99.90
15554;DHT22;7878;44.632;10.942;2022-11-20T06:57:47;10.50;99.90
15554;DHT22;7878;44.632;10.942;2022-11-20T07:00:13;10.60;99.90
15554;DHT22;7878;44.632;10.942;2022-11-20T07:02:39;10.70;99.90
15554;DHT22;7878;44.632;10.942;2022-11-20T07:05:04;10.70;99.90
15554;DHT22;7878;44.632;10.942;2022-11-20T07:07:30;10.80;99.90
15554;DHT22;7878;44.632;10.942;2022-11-20T07:09:56;10.80;99.90
15554;DHT22;7878;44.632;10.942;2022-11-20T07:12:21;10.90;99.90
15554;DHT22;7878;44.632;10.942;2022-11-20T07:14:47;10.90;99.90
15554;DHT22;7878;44.632;10.942;2022-11-20T07:17:13;11.00;99.90
15554;DHT22;7878;44.632;10.942;2022-11-20T07:19:38;11.00;99.90
15554;DHT22;7878;44.632;10.942;2022-11-20T07:22:04;11.10;99.90
15554;DHT22;7878;44.632;10.942;2022-11-20T07:24:30;11.20;99.90
15554;DHT22;7878;44.632;10.942;2022-11-20T07:26:55;11.20;99.90
15554;DHT22;7878;44.632;10.942;2022-11-20T07:29:21;11.30;99.90
15554;DHT22;7878;44.632;10.942;2022-11-20T07:31:47;11.30;99.90
15554;DHT22;7878;44.632;10.942;2022-11-20T07:34:12;11.40;99.90
15554;DHT22;7878;44.632;10.942;2022-11-20T07:36:38;11.40;99.90
15554;DHT22;7878;44.632;10.942;2022-11-20T07:39:04;11.40;99.90
15554;DHT22;7878;44.632;10.942;2022-11-20T07:41:30;11.40;99.90
15554;DHT22;7878;44.632;10.942;2022-11-20T07:43:56;11.50;99.90
15554;DHT22;7878;44.632;10.942;2022-11-20T07:46:22;11.50;99.90
15554;DHT22;7878;44.632;10.942;2022-11-20T07:48:47;11.60;99.90
15554;DHT22;7878;44.632;10.942;2022-11-20T07:51:13;11.60;99.90
15554;DHT22;7878;44.632;10.942;2022-11-20T07:53:39;11.60;99.90
15554;DHT22;7878;44.632;10.942;2022-11-20T07:56:05;11.70;99.90
15554;DHT22;7878;44.632;10.942;2022-11-20T07:58:31;11.70;99.90
15554;DHT22;7878;44.632;10.942;2022-11-20T08:01:04;11.70;99.90
15554;DHT22;7878;44.632;10.942;2022-11-20T08:03:30;11.80;99.90
15554;DHT22;7878;44.632;10.942;2022-11-20T08:05:59;11.80;99.90
15554;DHT22;7878;44.632;10.942;2022-11-20T08:08:26;11.80;99.90
15554;DHT22;7878;44.632;10.942;2022-11-20T08:10:52;11.90;99.90
15554;DHT22;7878;44.632;10.942;2022-11-20T08:13:18;11.90;99.90
15554;DHT22;7878;44.632;10.942;2022-11-20T08:16:02;12.00;99.90
15554;DHT22;7878;44.632;10.942;2022-11-20T08:18:28;12.00;99.90
15554;DHT22;7878;44.632;10.942;2022-11-20T08:20:53;12.00;99.90
15554;DHT22;7878;44.632;10.942;2022-11-20T08:23:19;12.60;99.90
15554;DHT22;7878;44.632;10.942;2022-11-20T08:25:49;13.40;99.90
15554;DHT22;7878;44.632;10.942;2022-11-20T08:28:15;14.70;99.90
15554;DHT22;7878;44.632;10.942;2022-11-20T08:30:40;16.30;99.90
15554;DHT22;7878;44.632;10.942;2022-11-20T08:33:08;16.80;99.90
15554;DHT22;7878;44.632;10.942;2022-11-20T08:35:37;17.30;99.90
15554;DHT22;7878;44.632;10.942;2022-11-20T08:38:04;18.30;99.90
15554;DHT22;7878;44.632;10.942;2022-11-20T08:40:30;18.90;99.90
15554;DHT22;7878;44.632;10.942;2022-11-20T08:42:56;19.10;99.90
15554;DHT22;7878;44.632;10.942;2022-11-20T08:45:22;18.60;99.90
15554;DHT22;7878;44.632;10.942;2022-11-20T08:47:48;17.70;99.90
15554;DHT22;7878;44.632;10.942;2022-11-20T08:50:15;17.00;99.90
15554;DHT22;7878;44.632;10.942;2022-11-20T08:52:41;17.00;99.90
15554;DHT22;7878;44.632;10.942;2022-11-20T08:55:07;16.90;99.90
15554;DHT22;7878;44.632;10.942;2022-11-20T08:57:34;16.20;99.90
15554;DHT22;7878;44.632;10.942;2022-11-20T09:00:01;15.70;99.90
15554;DHT22;7878;44.632;10.942;2022-11-20T09:02:27;15.40;99.90
15554;DHT22;7878;44.632;10.942;2022-11-20T09:04:52;15.10;99.90
15554;DHT22;7878;44.632;10.942;2022-11-20T09:07:21;14.80;99.90
15554;DHT22;7878;44.632;10.942;2022-11-20T09:09:47;14.70;99.90
15554;DHT22;7878;44.632;10.942;2022-11-20T09:12:13;14.60;99.90
15554;DHT22;7878;44.632;10.942;2022-11-20T09:14:39;14.60;99.90
15554;DHT22;7878;44.632;10.942;2022-11-20T09:17:04;14.60;99.90
15554;DHT22;7878;44.632;10.942;2022-11-20T09:19:30;14.60;99.90
15554;DHT22;7878;44.632;10.942;2022-11-20T09:21:56;14.60;99.90
15554;DHT22;7878;44.632;10.942;2022-11-20T09:24:21;15.10;99.90
15554;DHT22;7878;44.632;10.942;2022-11-20T09:26:47;16.00;99.90
15554;DHT22;7878;44.632;10.942;2022-11-20T09:29:13;16.80;99.90
15554;DHT22;7878;44.632;10.942;2022-11-20T09:31:38;17.60;99.90
15554;DHT22;7878;44.632;10.942;2022-11-20T09:34:04;19.90;99.90
15554;DHT22;7878;44.632;10.942;2022-11-20T09:36:30;21.00;99.90
15554;DHT22;7878;44.632;10.942;2022-11-20T09:38:55;21.30;99.90
15554;DHT22;7878;44.632;10.942;2022-11-20T09:49:13;20.70;98.50
15554;DHT22;7878;44.632;10.942;2022-11-20T09:52:06;20.30;98.20
15554;DHT22;7878;44.632;10.942;2022-11-20T09:54:37;20.40;96.90
15554;DHT22;7878;44.632;10.942;2022-11-20T09:57:23;21.70;99.50
15554;DHT22;7878;44.632;10.942;2022-11-20T09:59:55;23.50;95.30
15554;DHT22;7878;44.632;10.942;2022-11-20T10:04:56;26.90;92.20
15554;DHT22;7878;44.632;10.942;2022-11-20T10:07:43;27.50;90.90
15554;DHT22;7878;44.632;10.942;2022-11-20T10:10:16;27.60;82.50
15554;DHT22;7878;44.632;10.942;2022-11-20T10:21:34;28.10;82.80
15554;DHT22;7878;44.632;10.942;2022-11-20T10:24:29;28.70;78.00
15554;DHT22;7878;44.632;10.942;2022-11-20T10:30:06;30.00;77.50
15554;DHT22;7878;44.632;10.942;2022-11-20T10:35:48;33.20;69.20
15554;DHT22;7878;44.632;10.942;2022-11-20T10:40:49;35.00;71.70
15554;DHT22;7878;44.632;10.942;2022-11-20T10:43:28;35.70;70.70
15554;DHT22;7878;44.632;10.942;2022-11-20T10:46:02;36.50;69.80
15554;DHT22;7878;44.632;10.942;2022-11-20T10:48:31;36.90;64.00
15554;DHT22;7878;44.632;10.942;2022-11-20T10:54:29;35.20;54.80
15554;DHT22;7878;44.632;10.942;2022-11-20T10:57:13;33.40;63.30
15554;DHT22;7878;44.632;10.942;2022-11-20T11:07:56;37.00;54.90
15554;DHT22;7878;44.632;10.942;2022-11-20T11:10:54;37.60;66.00
15554;DHT22;7878;44.632;10.942;2022-11-20T11:15:47;35.80;64.70
15554;DHT22;7878;44.632;10.942;2022-11-20T11:18:27;36.10;65.30
15554;DHT22;7878;44.632;10.942;2022-11-20T11:20:54;36.50;56.80
15554;DHT22;7878;44.632;10.942;2022-11-20T11:23:39;37.00;64.50
15554;DHT22;7878;44.632;10.942;2022-11-20T11:26:22;37.70;52.80
15554;DHT22;7878;44.632;10.942;2022-11-20T11:31:28;38.90;55.70
15554;DHT22;7878;44.632;10.942;2022-11-20T11:34:22;38.90;54.60
15554;DHT22;7878;44.632;10.942;2022-11-20T11:36:55;39.00;52.70
15554;DHT22;7878;44.632;10.942;2022-11-20T11:39:22;39.00;55.60
15554;DHT22;7878;44.632;10.942;2022-11-20T11:41:48;38.70;60.10
15554;DHT22;7878;44.632;10.942;2022-11-20T11:44:21;37.80;60.10
15554;DHT22;7878;44.632;10.942;2022-11-20T11:47:30;35.90;59.30
15554;DHT22;7878;44.632;10.942;2022-11-20T11:55:12;33.50;62.70
15554;DHT22;7878;44.632;10.942;2022-11-20T11:58:02;31.90;66.50
15554;DHT22;7878;44.632;10.942;2022-11-20T12:00:32;29.70;61.40
15554;DHT22;7878;44.632;10.942;2022-11-20T12:05:44;26.60;65.30
15554;DHT22;7878;44.632;10.942;2022-11-20T12:08:36;25.60;72.00
15554;DHT22;7878;44.632;10.942;2022-11-20T12:14:19;25.70;72.40
15554;DHT22;7878;44.632;10.942;2022-11-20T12:16:50;28.20;62.00
15554;DHT22;7878;44.632;10.942;2022-11-20T12:19:16;30.60;67.30
15554;DHT22;7878;44.632;10.942;2022-11-20T12:21:56;32.10;64.20
15554;DHT22;7878;44.632;10.942;2022-11-20T12:24:55;32.40;56.40
15554;DHT22;7878;44.632;10.942;2022-11-20T12:30:27;32.00;56.10
15554;DHT22;7878;44.632;10.942;2022-11-20T12:44:34;28.60;63.10
15554;DHT22;7878;44.632;10.942;2022-11-20T12:52:57;29.90;64.70
15554;DHT22;7878;44.632;10.942;2022-11-20T12:58:36;30.20;56.50
15554;DHT22;7878;44.632;10.942;2022-11-20T13:06:45;27.00;63.00
15554;DHT22;7878;44.632;10.942;2022-11-20T13:09:15;25.20;68.30
15554;DHT22;7878;44.632;10.942;2022-11-20T13:12:08;24.00;69.00
15554;DHT22;7878;44.632;10.942;2022-11-20T13:20:13;21.50;70.70
15554;DHT22;7878;44.632;10.942;2022-11-20T13:22:44;21.20;72.60
15554;DHT22;7878;44.632;10.942;2022-11-20T13:25:32;20.90;73.70
15554;DHT22;7878;44.632;10.942;2022-11-20T13:30:51;20.20;72.50
15554;DHT22;7878;44.632;10.942;2022-11-20T13:33:34;20.00;75.10
15554;DHT22;7878;44.632;10.942;2022-11-20T13:36:06;19.80;74.30
15554;DHT22;7878;44.632;10.942;2022-11-20T13:38:47;19.70;77.00
15554;DHT22;7878;44.632;10.942;2022-11-20T13:41:33;19.50;75.30
15554;DHT22;7878;44.632;10.942;2022-11-20T13:44:38;19.30;76.00
15554;DHT22;7878;44.632;10.942;2022-11-20T13:47:21;18.90;77.10
15554;DHT22;7878;44.632;10.942;2022-11-20T13:49:48;18.80;79.30
15554;DHT22;7878;44.632;10.942;2022-11-20T13:57:53;18.20;80.90
15554;DHT22;7878;44.632;10.942;2022-11-20T14:00:22;18.10;82.30
15554;DHT22;7878;44.632;10.942;2022-11-20T14:03:01;18.10;82.90
15554;DHT22;7878;44.632;10.942;2022-11-20T14:05:36;18.00;81.90
15554;DHT22;7878;44.632;10.942;2022-11-20T14:08:09;18.00;82.70
15554;DHT22;7878;44.632;10.942;2022-11-20T14:10:38;17.80;83.60
15554;DHT22;7878;44.632;10.942;2022-11-20T14:13:19;17.70;83.90
15554;DHT22;7878;44.632;10.942;2022-11-20T14:15:45;17.70;83.10
15554;DHT22;7878;44.632;10.942;2022-11-20T14:18:21;17.60;84.40
15554;DHT22;7878;44.632;10.942;2022-11-20T14:20:49;17.50;84.40
15554;DHT22;7878;44.632;10.942;2022-11-20T14:23:27;17.50;84.60
15554;DHT22;7878;44.632;10.942;2022-11-20T14:25:53;17.50;85.60
15554;DHT22;7878;44.632;10.942;2022-11-20T14:28:30;17.40;86.00
15554;DHT22;7878;44.632;10.942;2022-11-20T14:30:56;17.40;86.40
15554;DHT22;7878;44.632;10.942;2022-11-20T14:33:25;17.30;86.30
15554;DHT22;7878;44.632;10.942;2022-11-20T14:35:55;17.20;87.30
15554;DHT22;7878;44.632;10.942;2022-11-20T14:38:24;17.20;86.50
15554;DHT22;7878;44.632;10.942;2022-11-20T14:40:51;17.10;87.60
15554;DHT22;7878;44.632;10.942;2022-11-20T14:43:24;17.00;88.00
15554;DHT22;7878;44.632;10.942;2022-11-20T14:46:19;17.00;88.10
15554;DHT22;7878;44.632;10.942;2022-11-20T14:48:50;17.00;87.80
15554;DHT22;7878;44.632;10.942;2022-11-20T14:51:33;16.90;88.90
15554;DHT22;7878;44.632;10.942;2022-11-20T14:54:10;16.90;89.00
15554;DHT22;7878;44.632;10.942;2022-11-20T14:56:36;16.80;89.60
15554;DHT22;7878;44.632;10.942;2022-11-20T14:59:02;16.80;90.10
15554;DHT22;7878;44.632;10.942;2022-11-20T15:01:30;16.70;90.20
15554;DHT22;7878;44.632;10.942;2022-11-20T15:04:01;16.70;90.60
15554;DHT22;7878;44.632;10.942;2022-11-20T15:06:28;16.60;90.60
15554;DHT22;7878;44.632;10.942;2022-11-20T15:08:54;16.50;90.70
15554;DHT22;7878;44.632;10.942;2022-11-20T15:11:30;16.50;90.90
15554;DHT22;7878;44.632;10.942;2022-11-20T15:13:57;16.50;91.00
15554;DHT22;7878;44.632;10.942;2022-11-20T15:16:23;16.40;91.10
15554;DHT22;7878;44.632;10.942;2022-11-20T15:18:50;16.40;91.40
15554;DHT22;7878;44.632;10.942;2022-11-20T15:21:18;16.30;91.40
15554;DHT22;7878;44.632;10.942;2022-11-20T15:23:44;16.20;91.60
15554;DHT22;7878;44.632;10.942;2022-11-20T15:26:12;16.20;91.80
15554;DHT22;7878;44.632;10.942;2022-11-20T15:28:43;16.10;91.90
15554;DHT22;7878;44.632;10.942;2022-11-20T15:31:14;16.00;92.00
15554;DHT22;7878;44.632;10.942;2022-11-20T15:33:40;16.00;92.20
15554;DHT22;7878;44.632;10.942;2022-11-20T15:36:09;15.80;92.20
15554;DHT22;7878;44.632;10.942;2022-11-20T15:38:35;15.80;92.50
15554;DHT22;7878;44.632;10.942;2022-11-20T15:41:00;15.70;92.50
15554;DHT22;7878;44.632;10.942;2022-11-20T15:43:26;15.70;92.60
15554;DHT22;7878;44.632;10.942;2022-11-20T15:45:59;15.60;92.70
15554;DHT22;7878;44.632;10.942;2022-11-20T15:48:52;15.60;92.90
15554;DHT22;7878;44.632;10.942;2022-11-20T15:51:31;15.50;93.50
15554;DHT22;7878;44.632;10.942;2022-11-20T15:53:58;15.30;93.40
15554;DHT22;7878;44.632;10.942;2022-11-20T15:56:24;15.30;93.50
15554;DHT22;7878;44.632;10.942;2022-11-20T15:58:50;15.20;93.70
15554;DHT22;7878;44.632;10.942;2022-11-20T16:01:18;15.10;93.70
15554;DHT22;7878;44.632;10.942;2022-11-20T16:03:44;15.00;94.00
15554;DHT22;7878;44.632;10.942;2022-11-20T16:06:09;15.00;94.00
15554;DHT22;7878;44.632;10.942;2022-11-20T16:08:35;15.00;94.20
15554;DHT22;7878;44.632;10.942;2022-11-20T16:11:01;14.90;94.30
15554;DHT22;7878;44.632;10.942;2022-11-20T16:13:27;14.80;94.40
15554;DHT22;7878;44.632;10.942;2022-11-20T16:16:38;14.80;94.60
15554;DHT22;7878;44.632;10.942;2022-11-20T16:19:05;14.70;95.20
15554;DHT22;7878;44.632;10.942;2022-11-20T16:21:31;14.70;95.00
15554;DHT22;7878;44.632;10.942;2022-11-20T16:24:02;14.60;95.00
15554;DHT22;7878;44.632;10.942;2022-11-20T16:26:28;14.60;95.30
15554;DHT22;7878;44.632;10.942;2022-11-20T16:28:54;14.60;95.30
15554;DHT22;7878;44.632;10.942;2022-11-20T16:31:21;14.60;95.50
15554;DHT22;7878;44.632;10.942;2022-11-20T16:33:54;14.50;95.50
15554;DHT22;7878;44.632;10.942;2022-11-20T16:36:21;14.50;95.50
15554;DHT22;7878;44.632;10.942;2022-11-20T16:38:55;14.40;95.60
15554;DHT22;7878;44.632;10.942;2022-11-20T16:41:21;14.40;96.00
15554;DHT22;7878;44.632;10.942;2022-11-20T16:43:52;14.30;95.90
15554;DHT22;7878;44.632;10.942;2022-11-20T16:46:21;14.30;96.10
15554;DHT22;7878;44.632;10.942;2022-11-20T16:49:13;14.30;96.20
15554;DHT22;7878;44.632;10.942;2022-11-20T16:51:39;14.30;96.80
15554;DHT22;7878;44.632;10.942;2022-11-20T16:54:07;14.30;96.50
15554;DHT22;7878;44.632;10.942;2022-11-20T16:56:33;14.20;96.70
15554;DHT22;7878;44.632;10.942;2022-11-20T16:59:00;14.20;96.70
15554;DHT22;7878;44.632;10.942;2022-11-20T17:01:28;14.20;96.80
15554;DHT22;7878;44.632;10.942;2022-11-20T17:03:59;14.20;96.90
15554;DHT22;7878;44.632;10.942;2022-11-20T17:06:27;14.10;96.80
15554;DHT22;7878;44.632;10.942;2022-11-20T17:08:54;14.10;96.80
15554;DHT22;7878;44.632;10.942;2022-11-20T17:11:21;14.10;96.80
15554;DHT22;7878;44.632;10.942;2022-11-20T17:13:46;14.10;96.80
15554;DHT22;7878;44.632;10.942;2022-11-20T17:16:17;14.10;97.10
15554;DHT22;7878;44.632;10.942;2022-11-20T17:18:43;14.00;97.30
15554;DHT22;7878;44.632;10.942;2022-11-20T17:21:10;14.00;97.10
15554;DHT22;7878;44.632;10.942;2022-11-20T17:23:41;14.00;97.20
15554;DHT22;7878;44.632;10.942;2022-11-20T17:28:36;13.90;97.30
15554;DHT22;7878;44.632;10.942;2022-11-20T17:31:06;13.90;97.50